createdAt,value
2019-03-31T00:01:07.301Z,99581.91
2019-03-31T00:03:23.119Z,99577.61
2019-03-31T00:05:49.887Z,99591.95
2019-03-31T00:08:16.649Z,99587.48
2019-03-31T00:10:43.353Z,99586.56
2019-03-31T00:13:10.193Z,99578.73
2019-03-31T00:15:37.024Z,99580.25
2019-03-31T00:18:04.174Z,99581.30
2019-03-31T00:20:33.959Z,99577.45
2019-03-31T00:23:00.809Z,99570.20
2019-03-31T00:25:27.618Z,99570.62
2019-03-31T00:27:54.387Z,99571.83
2019-03-31T00:30:21.485Z,99566.55
2019-03-31T00:32:48.239Z,99566.28
2019-03-31T00:35:15.037Z,99566.91
2019-03-31T00:37:41.809Z,99563.45
2019-03-31T00:40:10.525Z,99567.09
2019-03-31T00:42:37.376Z,99561.16
2019-03-31T00:45:05.829Z,99563.80
2019-03-31T00:47:32.605Z,99574.89
2019-03-31T00:49:59.555Z,99573.77
2019-03-31T00:52:26.345Z,99562.05
2019-03-31T00:54:53.093Z,99573.30
2019-03-31T00:57:19.841Z,99572.00
2019-03-31T00:59:46.841Z,99560.39
2019-03-31T01:02:17.346Z,99562.84
2019-03-31T01:04:44.086Z,99563.84
2019-03-31T01:07:10.832Z,99573.25
2019-03-31T01:09:37.824Z,99574.60
2019-03-31T01:12:04.647Z,99569.83
2019-03-31T01:14:31.411Z,99562.92
2019-03-31T01:16:59.650Z,99569.02
2019-03-31T01:19:28.529Z,99571.83
2019-03-31T01:21:55.350Z,99563.27
2019-03-31T01:24:22.707Z,99565.09
2019-03-31T01:26:49.419Z,99564.66
2019-03-31T01:29:16.292Z,99558.73
2019-03-31T01:31:50.300Z,99566.98
2019-03-31T01:34:15.339Z,99561.52
2019-03-31T01:36:42.210Z,99565.82
2019-03-31T01:39:08.959Z,99553.99
2019-03-31T01:41:35.893Z,99551.98
2019-03-31T01:44:02.792Z,99557.73
2019-03-31T01:46:29.603Z,99552.59
2019-03-31T01:48:56.338Z,99549.54
2019-03-31T01:51:23.392Z,99543.95
2019-03-31T01:53:50.287Z,99548.47
2019-03-31T01:56:17.319Z,99546.98
2019-03-31T01:58:44.252Z,99546.02
2019-03-31T02:01:12.910Z,99539.61
2019-03-31T02:03:39.950Z,99536.65
2019-03-31T02:06:07.493Z,99539.47
2019-03-31T02:08:34.300Z,99536.17
2019-03-31T02:11:01.003Z,99533.20
2019-03-31T02:13:27.897Z,99537.50
2019-03-31T02:15:54.724Z,99535.36
2019-03-31T02:18:21.437Z,99525.01
2019-03-31T02:20:48.154Z,99531.95
2019-03-31T02:23:15.202Z,99525.72
2019-03-31T02:25:41.958Z,99522.42
2019-03-31T02:28:08.745Z,99518.30
2019-03-31T02:30:35.522Z,99521.09
2019-03-31T02:33:02.455Z,99517.31
2019-03-31T02:35:29.310Z,99517.64
2019-03-31T02:37:56.191Z,99516.16
2019-03-31T02:40:22.972Z,99518.74
2019-03-31T02:42:49.753Z,99524.48
2019-03-31T02:45:16.693Z,99516.83
2019-03-31T02:47:43.486Z,99523.09
2019-03-31T02:50:14.033Z,99517.05
2019-03-31T02:52:40.928Z,99527.42
2019-03-31T02:55:07.689Z,99511.64
2019-03-31T02:57:34.645Z,99507.04
2019-03-31T03:00:01.618Z,99510.81
2019-03-31T03:02:41.353Z,99506.41
2019-03-31T03:04:57.313Z,99510.03
2019-03-31T03:07:24.221Z,99508.36
2019-03-31T03:09:51.255Z,99506.73
2019-03-31T03:12:17.989Z,99511.34
2019-03-31T03:14:45.348Z,99514.00
2019-03-31T03:17:12.344Z,99507.07
2019-03-31T03:19:39.107Z,99505.44
2019-03-31T03:22:05.818Z,99503.97
2019-03-31T03:24:33.570Z,99507.91
2019-03-31T03:27:00.351Z,99507.39
2019-03-31T03:29:27.118Z,99505.43
2019-03-31T03:31:53.957Z,99505.43
2019-03-31T03:34:21.151Z,99506.91
2019-03-31T03:36:47.894Z,99522.19
2019-03-31T03:39:14.734Z,99516.62
2019-03-31T03:41:41.991Z,99520.23
2019-03-31T03:44:08.786Z,99527.45
2019-03-31T03:46:35.635Z,99522.84
2019-03-31T03:49:02.493Z,99524.34
2019-03-31T03:51:29.527Z,99518.08
2019-03-31T03:53:57.241Z,99523.17
2019-03-31T03:56:28.715Z,99529.27
2019-03-31T03:58:52.730Z,99522.84
2019-03-31T04:01:20.002Z,99521.20
2019-03-31T04:03:46.709Z,99516.28
2019-03-31T04:06:13.797Z,99517.91
2019-03-31T04:08:40.735Z,99512.82
2019-03-31T04:11:08.626Z,99511.20
2019-03-31T04:13:35.389Z,99505.92
2019-03-31T04:16:02.176Z,99512.98
2019-03-31T04:18:29.024Z,99520.22
2019-03-31T04:20:57.851Z,99504.78
2019-03-31T04:23:24.867Z,99505.27
2019-03-31T04:25:52.657Z,99509.70
2019-03-31T04:28:19.420Z,99513.60
2019-03-31T04:30:46.522Z,99511.94
2019-03-31T04:33:13.257Z,99502.27
2019-03-31T04:35:40.019Z,99514.30
2019-03-31T04:38:06.780Z,99514.30
2019-03-31T04:40:33.778Z,99511.97
2019-03-31T04:43:00.595Z,99510.97
2019-03-31T04:45:27.363Z,99507.97
2019-03-31T04:47:54.410Z,99504.30
2019-03-31T04:50:21.173Z,99511.19
2019-03-31T04:52:47.959Z,99519.36
2019-03-31T04:55:14.723Z,99519.00
2019-03-31T04:57:41.553Z,99516.66
2019-03-31T05:00:08.311Z,99513.69
2019-03-31T05:02:35.061Z,99519.77
2019-03-31T05:05:01.811Z,99515.03
2019-03-31T05:07:28.610Z,99516.98
2019-03-31T05:09:55.470Z,99520.59
2019-03-31T05:12:22.209Z,99524.22
2019-03-31T05:14:48.930Z,99526.19
2019-03-31T05:17:16.327Z,99522.93
2019-03-31T05:19:43.046Z,99516.00
2019-03-31T05:22:09.788Z,99524.22
2019-03-31T05:24:37.308Z,99526.80
2019-03-31T05:27:04.053Z,99522.86
2019-03-31T05:29:30.817Z,99530.83
2019-03-31T05:31:57.774Z,99535.20
2019-03-31T05:34:24.815Z,99508.73
2019-03-31T05:36:51.576Z,99518.69
2019-03-31T05:39:18.600Z,99521.24
2019-03-31T05:41:45.456Z,99516.81
2019-03-31T05:44:12.246Z,99526.13
2019-03-31T05:46:39.025Z,99526.84
2019-03-31T05:49:05.751Z,99527.90
2019-03-31T05:51:32.818Z,99526.74
2019-03-31T05:53:59.577Z,99527.23
2019-03-31T05:56:26.952Z,99533.63
2019-03-31T05:58:54.551Z,99524.89
2019-03-31T06:01:21.458Z,99520.23
2019-03-31T06:03:48.261Z,99523.97
2019-03-31T06:06:15.014Z,99528.31
2019-03-31T06:08:41.763Z,99529.03
2019-03-31T06:11:08.581Z,99535.81
2019-03-31T06:13:35.367Z,99536.95
2019-03-31T06:16:02.125Z,99531.91
2019-03-31T06:18:28.846Z,99542.66
2019-03-31T06:20:55.545Z,99542.56
2019-03-31T06:23:22.332Z,99538.94
2019-03-31T06:25:49.186Z,99540.39
2019-03-31T06:28:15.941Z,99545.03
2019-03-31T06:30:42.705Z,99541.49
2019-03-31T06:33:09.595Z,99545.92
2019-03-31T06:35:36.385Z,99540.55
2019-03-31T06:38:03.085Z,99543.69
2019-03-31T06:40:29.874Z,99546.12
2019-03-31T06:42:56.832Z,99535.02
2019-03-31T06:45:23.579Z,99543.05
2019-03-31T06:47:50.510Z,99535.83
2019-03-31T06:50:18.419Z,99549.66
2019-03-31T06:52:45.114Z,99542.31
2019-03-31T06:55:12.406Z,99542.09
2019-03-31T06:57:39.195Z,99545.70
2019-03-31T07:00:06.546Z,99540.70
2019-03-31T07:02:33.669Z,99540.96
2019-03-31T07:05:01.791Z,99544.17
2019-03-31T07:07:28.779Z,99534.52
2019-03-31T07:09:55.595Z,99536.14
2019-03-31T07:12:22.339Z,99536.62
2019-03-31T07:14:49.128Z,99535.81
2019-03-31T07:17:15.850Z,99535.24
2019-03-31T07:19:42.765Z,99547.14
2019-03-31T07:22:09.488Z,99548.23
2019-03-31T07:24:36.233Z,99544.05
2019-03-31T07:27:02.977Z,99553.18
2019-03-31T07:29:30.191Z,99554.08
2019-03-31T07:31:56.964Z,99557.96
2019-03-31T07:34:23.701Z,99556.40
2019-03-31T07:36:50.445Z,99562.64
2019-03-31T07:39:17.408Z,99558.16
2019-03-31T07:41:44.244Z,99552.79
2019-03-31T07:44:11.243Z,99555.48
2019-03-31T07:46:38.175Z,99557.21
2019-03-31T07:49:05.227Z,99550.56
2019-03-31T07:51:31.966Z,99551.86
2019-03-31T07:53:58.976Z,99546.50
2019-03-31T07:56:25.711Z,99547.23
2019-03-31T07:58:52.554Z,99538.81
2019-03-31T08:01:19.445Z,99548.31
2019-03-31T08:03:46.246Z,99543.04
2019-03-31T08:06:13.540Z,99547.69
2019-03-31T08:08:40.592Z,99547.05
2019-03-31T08:11:07.435Z,99543.96
2019-03-31T08:13:34.146Z,99545.03
2019-03-31T08:16:00.958Z,99537.64
2019-03-31T08:18:27.787Z,99544.41
2019-03-31T08:20:54.617Z,99547.31
2019-03-31T08:23:22.501Z,99528.67
2019-03-31T08:25:49.724Z,99528.67
2019-03-31T08:28:16.707Z,99535.99
2019-03-31T08:30:43.451Z,99523.75
2019-03-31T08:33:10.310Z,99518.14
2019-03-31T08:35:47.254Z,99529.52
2019-03-31T08:38:05.891Z,99529.52
2019-03-31T08:40:32.646Z,99533.30
2019-03-31T08:42:59.568Z,99535.98
2019-03-31T08:45:26.404Z,99532.68
2019-03-31T08:47:53.138Z,99538.17
2019-03-31T08:50:20.398Z,99502.71
2019-03-31T08:52:47.160Z,99514.09
2019-03-31T08:55:13.940Z,99525.17
2019-03-31T08:57:40.735Z,99532.53
2019-03-31T09:00:11.723Z,99532.53
2019-03-31T09:02:38.482Z,99517.96
2019-03-31T09:05:09.033Z,99517.96
2019-03-31T09:07:35.912Z,99511.66
2019-03-31T09:10:05.140Z,99515.78
2019-03-31T09:12:31.883Z,99515.78
2019-03-31T09:14:58.941Z,99504.07
2019-03-31T09:17:25.679Z,99508.27
2019-03-31T09:19:52.459Z,99508.27
2019-03-31T09:22:19.198Z,99494.62
2019-03-31T09:24:46.216Z,99506.27
2019-03-31T09:27:12.980Z,99500.70
2019-03-31T09:29:39.735Z,99496.08
2019-03-31T09:32:06.556Z,99507.40
2019-03-31T09:34:33.358Z,99504.60
2019-03-31T09:37:00.170Z,99496.20
2019-03-31T09:39:26.895Z,99495.60
2019-03-31T09:41:53.861Z,99493.76
2019-03-31T09:44:20.729Z,99487.42
2019-03-31T09:46:47.521Z,99491.06
2019-03-31T09:49:14.297Z,99490.55
2019-03-31T09:51:41.191Z,99485.53
2019-03-31T09:54:07.986Z,99497.94
2019-03-31T09:56:34.724Z,99487.27
2019-03-31T09:59:01.511Z,99487.36
2019-03-31T10:01:28.257Z,99485.06
2019-03-31T10:03:55.027Z,99488.72
2019-03-31T10:06:30.173Z,99480.86
2019-03-31T10:08:51.134Z,99472.09
2019-03-31T10:11:17.905Z,99478.28
2019-03-31T10:13:44.623Z,99455.49
2019-03-31T10:16:11.544Z,99476.30
2019-03-31T10:18:40.186Z,99473.59
2019-03-31T10:21:07.074Z,99470.67
2019-03-31T10:23:33.818Z,99470.67
2019-03-31T10:26:00.574Z,99517.84
2019-03-31T10:28:27.364Z,99440.98
2019-03-31T10:30:54.155Z,99471.20
2019-03-31T10:33:21.066Z,99459.58
2019-03-31T10:35:47.852Z,99456.78
2019-03-31T10:38:14.589Z,99439.43
2019-03-31T10:40:41.716Z,99439.43
2019-03-31T10:43:08.768Z,99456.80
2019-03-31T10:45:35.533Z,99457.70
2019-03-31T10:48:02.502Z,99437.91
2019-03-31T10:50:29.343Z,99452.51
2019-03-31T10:52:56.045Z,99452.51
2019-03-31T10:55:22.850Z,99439.96
2019-03-31T10:57:49.644Z,99449.19
2019-03-31T11:00:20.219Z,99448.34
2019-03-31T11:02:47.081Z,99448.34
2019-03-31T11:05:13.889Z,99423.23
2019-03-31T11:07:40.699Z,99423.23
2019-03-31T11:10:07.498Z,99448.38
2019-03-31T11:12:34.274Z,99442.55
2019-03-31T11:15:01.016Z,99442.09
2019-03-31T11:17:27.773Z,99445.72
2019-03-31T11:19:54.701Z,99433.35
2019-03-31T11:22:26.329Z,99431.48
2019-03-31T11:24:53.104Z,99418.80
2019-03-31T11:27:19.879Z,99440.06
2019-03-31T11:29:46.646Z,99440.06
2019-03-31T11:32:13.492Z,99404.98
2019-03-31T11:34:40.286Z,99410.41
2019-03-31T11:37:13.572Z,99423.34
2019-03-31T11:39:35.639Z,99429.11
2019-03-31T11:42:02.699Z,99467.37
2019-03-31T11:44:29.507Z,99420.48
2019-03-31T11:46:56.346Z,99406.33
2019-03-31T11:49:23.332Z,99406.33
2019-03-31T11:51:50.175Z,99399.83
2019-03-31T11:54:17.007Z,99415.31
2019-03-31T11:56:43.759Z,99392.38
2019-03-31T11:59:10.720Z,99392.38
2019-03-31T12:01:37.471Z,99453.14
2019-03-31T12:04:04.162Z,99403.84
2019-03-31T12:06:30.883Z,99384.11
2019-03-31T12:08:57.837Z,99391.72
2019-03-31T12:11:24.652Z,99391.72
2019-03-31T12:13:51.411Z,99359.27
2019-03-31T12:16:18.218Z,99387.06
2019-03-31T12:18:45.114Z,99401.95
2019-03-31T12:21:11.827Z,99405.20
2019-03-31T12:23:38.835Z,99405.20
2019-03-31T12:26:05.600Z,99396.53
2019-03-31T12:28:32.460Z,99389.20
2019-03-31T12:30:59.196Z,99391.98
2019-03-31T12:33:25.970Z,99384.61
2019-03-31T12:35:52.970Z,99394.56
2019-03-31T12:38:19.759Z,99382.94
2019-03-31T12:40:46.482Z,99380.78
2019-03-31T12:43:13.240Z,99376.72
2019-03-31T12:45:42.929Z,99326.09
2019-03-31T12:48:09.640Z,99350.33
2019-03-31T12:50:36.369Z,99376.11
2019-03-31T12:53:03.286Z,99376.16
2019-03-31T12:55:30.398Z,99375.80
2019-03-31T12:57:57.164Z,99359.16
2019-03-31T13:00:23.921Z,99350.75
2019-03-31T13:02:50.783Z,99359.34
2019-03-31T13:05:17.611Z,99360.37
2019-03-31T13:07:55.733Z,99318.84
2019-03-31T13:10:13.342Z,99343.08
2019-03-31T13:12:40.165Z,99350.00
2019-03-31T13:15:06.958Z,99344.75
2019-03-31T13:17:33.710Z,99322.08
2019-03-31T13:20:01.075Z,99303.12
2019-03-31T13:22:27.777Z,99321.27
2019-03-31T13:24:54.577Z,99321.27
2019-03-31T13:27:21.609Z,99319.63
2019-03-31T13:29:48.391Z,99308.98
2019-03-31T13:32:15.170Z,99310.17
2019-03-31T13:34:42.874Z,99307.86
2019-03-31T13:37:09.785Z,99309.56
2019-03-31T13:39:36.553Z,99309.56
2019-03-31T13:42:03.453Z,99309.20
2019-03-31T13:44:30.250Z,99309.20
2019-03-31T13:46:56.996Z,99310.52
2019-03-31T13:49:24.330Z,99322.84
2019-03-31T13:51:51.045Z,99322.84
2019-03-31T13:54:17.764Z,99319.73
2019-03-31T13:56:47.661Z,99324.27
2019-03-31T13:59:13.332Z,99323.79
2019-03-31T14:01:40.118Z,99314.21
2019-03-31T14:04:06.821Z,99309.22
2019-03-31T14:06:35.226Z,99309.22
2019-03-31T14:09:03.596Z,99308.84
2019-03-31T14:11:30.626Z,99308.53
2019-03-31T14:13:57.405Z,99448.24
2019-03-31T14:16:24.352Z,99325.42
2019-03-31T14:18:51.410Z,99309.02
2019-03-31T14:21:18.170Z,99309.02
2019-03-31T14:23:44.946Z,99317.63
2019-03-31T14:26:11.636Z,99310.38
2019-03-31T14:28:38.899Z,99309.27
2019-03-31T14:31:05.708Z,99313.31
2019-03-31T14:33:32.535Z,99383.85
2019-03-31T14:35:59.608Z,99314.41
2019-03-31T14:38:39.587Z,99310.34
2019-03-31T14:40:55.042Z,99315.43
2019-03-31T14:43:21.860Z,99318.79
2019-03-31T14:45:48.646Z,99319.36
2019-03-31T14:48:15.457Z,99319.36
2019-03-31T14:50:42.213Z,99309.61
2019-03-31T14:53:08.949Z,99312.02
2019-03-31T14:55:35.941Z,99313.95
2019-03-31T14:58:02.864Z,99317.00
2019-03-31T15:00:29.772Z,99315.42
2019-03-31T15:02:56.563Z,99316.49
2019-03-31T15:05:23.370Z,99323.20
2019-03-31T15:07:50.370Z,99314.55
2019-03-31T15:10:17.267Z,99325.80
2019-03-31T15:12:44.041Z,99315.98
2019-03-31T15:15:10.990Z,99317.45
2019-03-31T15:17:38.097Z,99323.45
2019-03-31T15:20:04.867Z,99307.53
2019-03-31T15:22:31.716Z,99314.76
2019-03-31T15:24:58.654Z,99323.55
2019-03-31T15:27:25.603Z,99316.84
2019-03-31T15:29:52.493Z,99325.29
2019-03-31T15:32:19.354Z,99328.94
2019-03-31T15:34:46.223Z,99324.56
2019-03-31T15:37:13.165Z,99324.84
2019-03-31T15:39:40.032Z,99321.29
2019-03-31T15:42:06.907Z,99325.20
2019-03-31T15:44:33.804Z,99327.17
2019-03-31T15:47:00.745Z,99329.11
2019-03-31T15:49:27.570Z,99331.00
2019-03-31T15:51:54.376Z,99333.71
2019-03-31T15:54:21.376Z,99325.52
2019-03-31T15:56:48.221Z,99333.05
2019-03-31T15:59:14.915Z,99335.11
2019-03-31T16:01:41.837Z,99332.92
2019-03-31T16:04:09.661Z,99341.99
2019-03-31T16:06:36.690Z,99329.87
2019-03-31T16:09:05.720Z,99334.97
2019-03-31T16:11:32.470Z,99338.00
2019-03-31T16:13:59.348Z,99341.45
2019-03-31T16:16:26.242Z,99337.24
2019-03-31T16:18:53.018Z,99346.91
2019-03-31T16:21:19.772Z,99342.92
2019-03-31T16:23:46.667Z,99356.08
2019-03-31T16:26:13.528Z,99351.25
2019-03-31T16:28:40.312Z,99348.59
2019-03-31T16:31:07.095Z,99355.40
2019-03-31T16:33:33.970Z,99365.55
2019-03-31T16:36:00.906Z,99369.39
2019-03-31T16:38:27.616Z,99362.41
2019-03-31T16:40:54.662Z,99371.09
2019-03-31T16:43:21.433Z,99368.78
2019-03-31T16:45:48.314Z,99375.80
2019-03-31T16:48:15.091Z,99376.13
2019-03-31T16:50:41.937Z,99375.72
2019-03-31T16:53:08.738Z,99382.79
2019-03-31T16:55:35.445Z,99380.91
2019-03-31T16:58:02.256Z,99387.08
2019-03-31T17:00:29.061Z,99390.67
2019-03-31T17:02:57.657Z,99387.57
2019-03-31T17:05:24.483Z,99389.93
2019-03-31T17:07:51.621Z,99389.13
2019-03-31T17:10:18.359Z,99397.42
2019-03-31T17:12:45.141Z,99394.90
2019-03-31T17:15:12.691Z,99401.56
2019-03-31T17:17:39.597Z,99411.47
2019-03-31T17:20:06.323Z,99415.95
2019-03-31T17:22:33.303Z,99410.20
2019-03-31T17:25:00.043Z,99429.20
2019-03-31T17:27:27.715Z,99425.38
2019-03-31T17:29:54.661Z,99430.81
2019-03-31T17:32:21.485Z,99434.09
2019-03-31T17:34:48.394Z,99433.29
2019-03-31T17:37:15.163Z,99433.42
2019-03-31T17:39:41.952Z,99441.80
2019-03-31T17:42:08.833Z,99450.54
2019-03-31T17:44:35.611Z,99454.12
2019-03-31T17:47:02.440Z,99458.78
2019-03-31T17:49:29.621Z,99462.75
2019-03-31T17:51:56.426Z,99467.27
2019-03-31T17:54:23.202Z,99472.61
2019-03-31T17:56:49.915Z,99478.06
2019-03-31T17:59:16.755Z,99484.08
2019-03-31T18:01:43.604Z,99486.60
2019-03-31T18:04:10.398Z,99489.59
2019-03-31T18:06:37.571Z,99484.79
2019-03-31T18:09:07.061Z,99497.75
2019-03-31T18:11:34.075Z,99503.67
2019-03-31T18:14:00.874Z,99512.31
2019-03-31T18:16:27.705Z,99524.94
2019-03-31T18:18:54.435Z,99525.58
2019-03-31T18:21:21.336Z,99523.36
2019-03-31T18:23:48.083Z,99520.87
2019-03-31T18:26:14.840Z,99535.02
2019-03-31T18:28:43.764Z,99540.73
2019-03-31T18:31:10.396Z,99541.30
2019-03-31T18:33:37.189Z,99552.10
2019-03-31T18:36:03.979Z,99556.16
2019-03-31T18:38:30.958Z,99552.34
2019-03-31T18:40:58.097Z,99559.29
2019-03-31T18:43:24.969Z,99562.53
2019-03-31T18:45:51.889Z,99574.97
2019-03-31T18:48:18.761Z,99577.34
2019-03-31T18:50:45.592Z,99585.05
2019-03-31T18:53:14.261Z,99588.56
2019-03-31T18:55:43.425Z,99593.11
2019-03-31T18:58:21.323Z,99601.03
2019-03-31T19:00:53.092Z,99596.90
2019-03-31T19:03:38.212Z,99606.17
2019-03-31T19:06:19.220Z,99609.78
2019-03-31T19:08:47.843Z,99613.52
2019-03-31T19:11:16.582Z,99624.89
2019-03-31T19:14:03.723Z,99631.48
2019-03-31T19:16:35.117Z,99633.19
2019-03-31T19:19:17.853Z,99646.70
2019-03-31T19:21:47.060Z,99651.84
2019-03-31T19:24:18.583Z,99643.91
2019-03-31T19:27:04.002Z,99643.09
2019-03-31T19:29:49.396Z,99645.16
2019-03-31T19:32:21.401Z,99644.91
2019-03-31T19:35:08.457Z,99658.45
2019-03-31T19:37:43.229Z,99652.53
2019-03-31T19:40:12.425Z,99664.25
2019-03-31T19:42:56.184Z,99667.94
2019-03-31T19:45:27.835Z,99668.94
2019-03-31T19:47:59.704Z,99674.88
2019-03-31T19:50:44.892Z,99686.55
2019-03-31T19:53:30.410Z,99688.98
2019-03-31T19:56:07.808Z,99687.76
2019-03-31T19:58:32.925Z,99695.75
2019-03-31T20:01:04.643Z,99699.42
2019-03-31T20:03:39.815Z,99699.21
2019-03-31T20:06:20.678Z,99698.39
2019-03-31T20:08:55.487Z,99698.38
2019-03-31T20:11:33.049Z,99709.33
2019-03-31T20:14:10.888Z,99714.84
2019-03-31T20:16:45.452Z,99722.44
2019-03-31T20:19:16.964Z,99720.39
2019-03-31T20:22:02.429Z,99727.61
2019-03-31T20:24:31.392Z,99731.42
2019-03-31T20:27:18.439Z,99740.14
2019-03-31T20:29:56.197Z,99741.59
2019-03-31T20:32:34.134Z,99745.30
2019-03-31T20:35:10.246Z,99749.36
2019-03-31T20:37:41.887Z,99758.27
2019-03-31T20:40:16.794Z,99767.73
2019-03-31T20:42:48.448Z,99768.62
2019-03-31T20:45:15.261Z,99767.92
2019-03-31T20:47:42.174Z,99772.75
2019-03-31T20:50:08.973Z,99775.05
2019-03-31T20:52:35.961Z,99776.70
2019-03-31T20:55:15.683Z,99783.41
2019-03-31T20:57:32.279Z,99780.05
2019-03-31T20:59:59.066Z,99787.63
2019-03-31T21:02:25.849Z,99781.14
2019-03-31T21:04:52.712Z,99798.33
2019-03-31T21:07:19.598Z,99803.81
2019-03-31T21:09:46.368Z,99804.28
2019-03-31T21:12:13.226Z,99811.05
2019-03-31T21:14:39.978Z,99812.08
2019-03-31T21:17:06.791Z,99818.33
2019-03-31T21:19:33.547Z,99827.62
2019-03-31T21:22:00.313Z,99826.47
2019-03-31T21:24:27.143Z,99840.13
2019-03-31T21:26:53.914Z,99844.70
2019-03-31T21:29:20.944Z,99851.16
2019-03-31T21:31:47.888Z,99847.86
2019-03-31T21:34:14.764Z,99847.53
2019-03-31T21:36:41.537Z,99847.77
2019-03-31T21:39:08.306Z,99853.22
2019-03-31T21:41:35.056Z,99864.06
2019-03-31T21:44:02.001Z,99863.79
2019-03-31T21:46:28.780Z,99860.75
2019-03-31T21:48:55.502Z,99863.69
2019-03-31T21:51:22.398Z,99868.50
2019-03-31T21:53:49.860Z,99864.06
2019-03-31T21:56:16.702Z,99863.52
2019-03-31T21:58:43.409Z,99880.59
2019-03-31T22:01:10.392Z,99885.08
2019-03-31T22:03:37.422Z,99882.66
2019-03-31T22:06:04.217Z,99892.02
2019-03-31T22:08:31.032Z,99888.34
2019-03-31T22:10:57.986Z,99892.45
2019-03-31T22:13:24.903Z,99899.16
2019-03-31T22:15:51.667Z,99894.91
2019-03-31T22:18:18.404Z,99896.50
2019-03-31T22:20:47.282Z,99885.25
2019-03-31T22:23:13.968Z,99895.11
2019-03-31T22:25:40.745Z,99902.83
2019-03-31T22:28:07.588Z,99899.14
2019-03-31T22:30:35.118Z,99902.91
2019-03-31T22:33:01.888Z,99894.83
2019-03-31T22:35:28.608Z,99903.44
2019-03-31T22:37:55.463Z,99906.97
2019-03-31T22:40:22.324Z,99896.66
2019-03-31T22:42:49.083Z,99896.34
2019-03-31T22:45:15.815Z,99910.16
2019-03-31T22:47:42.630Z,99906.05
2019-03-31T22:50:09.499Z,99901.94
2019-03-31T22:52:36.311Z,99906.58
2019-03-31T22:55:05.073Z,99909.68
2019-03-31T22:57:31.779Z,99917.17
2019-03-31T22:59:58.563Z,99916.44
2019-03-31T23:02:25.350Z,99915.30
2019-03-31T23:04:52.106Z,99917.04
2019-03-31T23:07:18.859Z,99917.95
2019-03-31T23:09:45.583Z,99911.02
2019-03-31T23:12:13.034Z,99919.48
2019-03-31T23:14:39.767Z,99922.11
2019-03-31T23:17:06.512Z,99922.11
2019-03-31T23:19:33.489Z,99926.59
2019-03-31T23:22:00.259Z,99922.56
2019-03-31T23:24:27.024Z,99923.05
2019-03-31T23:26:54.172Z,99923.15
2019-03-31T23:29:20.895Z,99918.94
2019-03-31T23:31:47.632Z,99928.16
2019-03-31T23:34:14.404Z,99928.98
2019-03-31T23:36:41.178Z,99930.91
2019-03-31T23:39:08.024Z,99932.61
2019-03-31T23:41:34.802Z,99937.91
2019-03-31T23:44:01.535Z,99931.63
2019-03-31T23:46:28.341Z,99923.69
2019-03-31T23:48:55.140Z,99933.92
2019-03-31T23:51:21.909Z,99933.29
2019-03-31T23:53:48.689Z,99935.73
2019-03-31T23:56:15.507Z,99934.02
2019-03-31T23:58:42.317Z,99947.72
